Time;durP1;ratioP1;P1;durP2;ratioP2;P2;SDS_P1;SDS_P2;PMS_P1;PMS_P2;Temp;Humidity;BMP_temperature;BMP_pressure;BME280_temperature;BME280_humidity;BME280_pressure;Samples;Min_cycle;Max_cycle;Signal;HPM_P1;HPM_P2
2024/04/19 00:01:52;;;;;;;4.95;1.70;;;;;;;10.09;35.25;101155.75;5313230;26;20089;-75
2024/04/19 00:04:22;;;;;;;2.75;1.50;;;;;;;10.09;35.45;101155.75;5279764;26;20032;-74
2024/04/19 00:06:50;;;;;;;3.00;1.38;;;;;;;10.08;35.42;101143.94;5320110;26;20009;-74
2024/04/19 00:09:22;;;;;;;4.05;1.48;;;;;;;10.09;35.59;101140.19;5308285;26;20005;-74
2024/04/19 00:11:49;;;;;;;2.35;1.30;;;;;;;10.04;35.44;101131.50;5300381;26;20074;-74
2024/04/19 00:14:19;;;;;;;3.95;1.55;;;;;;;10.06;35.19;101135.00;5300383;26;20007;-74
2024/04/19 00:16:54;;;;;;;2.67;1.30;;;;;;;10.05;35.08;101125.06;5265765;27;20005;-74
2024/04/19 00:19:25;;;;;;;3.00;1.55;;;;;;;10.04;35.09;101117.84;5294853;26;20001;-74
2024/04/19 00:21:52;;;;;;;3.55;1.58;;;;;;;10.04;35.47;101127.91;5282409;26;20183;-74
2024/04/19 00:24:24;;;;;;;5.72;2.00;;;;;;;10.05;35.46;101127.78;5292004;26;20019;-75
2024/04/19 00:26:51;;;;;;;5.00;1.88;;;;;;;10.01;35.67;101129.03;5306426;26;20037;-74
2024/04/19 00:29:41;;;;;;;3.95;1.80;;;;;;;10.01;35.35;101115.34;5310077;26;20092;-75
2024/04/19 00:32:08;;;;;;;4.18;2.30;;;;;;;10.03;35.86;101126.16;5317318;26;20006;-74
2024/04/19 00:34:38;;;;;;;5.13;2.10;;;;;;;10.02;35.68;101124.41;5316659;26;20061;-75
2024/04/19 00:37:05;;;;;;;4.65;2.00;;;;;;;10.01;36.15;101126.28;5312040;26;20010;-75
2024/04/19 00:39:37;;;;;;;4.28;1.88;;;;;;;10.04;36.00;101115.09;5328818;26;20013;-75
2024/04/19 00:42:05;;;;;;;5.40;1.70;;;;;;;9.98;36.33;101109.28;5283478;26;20091;-74
2024/04/19 00:44:35;;;;;;;3.97;1.70;;;;;;;9.98;36.15;101118.34;5319940;26;20006;-74
2024/04/19 00:47:03;;;;;;;4.32;1.63;;;;;;;9.99;35.87;101100.91;5322837;26;20013;-74
2024/04/19 00:49:33;;;;;;;3.67;1.50;;;;;;;9.97;35.93;101108.41;5306605;26;20474;-74
2024/04/19 00:52:01;;;;;;;3.05;1.60;;;;;;;9.96;36.10;101106.66;5310004;26;20021;-74
2024/04/19 00:54:30;;;;;;;3.80;1.60;;;;;;;9.93;35.84;101103.28;5313747;26;20020;-74
2024/04/19 00:57:01;;;;;;;2.90;1.45;;;;;;;9.94;36.58;101094.09;5289410;26;20079;-74
2024/04/19 00:59:32;;;;;;;4.05;1.70;;;;;;;9.89;36.54;101091.75;5311287;26;20836;-74
2024/04/19 01:01:59;;;;;;;3.10;1.70;;;;;;;9.85;36.54;101082.91;5315154;26;20010;-74
2024/04/19 01:04:29;;;;;;;3.65;1.88;;;;;;;9.84;36.51;101074.84;5309178;26;20008;-74
2024/04/19 01:06:56;;;;;;;3.10;1.70;;;;;;;9.81;36.37;101067.78;5282465;27;20005;-74
2024/04/19 01:09:26;;;;;;;2.85;1.50;;;;;;;9.80;36.71;101066.03;5308486;26;20054;-74
2024/04/19 01:11:54;;;;;;;3.33;1.80;;;;;;;9.78;36.53;101051.59;5304558;26;20017;-74
2024/04/19 01:14:27;;;;;;;3.55;1.60;;;;;;;9.78;36.67;101048.88;5310921;26;20014;-74
2024/04/19 01:16:54;;;;;;;3.22;1.63;;;;;;;9.72;36.37;101049.38;5309955;26;20014;-74
2024/04/19 01:19:23;;;;;;;3.08;1.58;;;;;;;9.73;36.39;101045.66;5283260;27;20017;-74
2024/04/19 01:21:51;;;;;;;3.50;1.55;;;;;;;9.72;36.43;101029.38;5309736;26;20020;-74
2024/04/19 01:24:29;;;;;;;2.58;1.60;;;;;;;9.72;36.90;101037.56;5312768;26;20404;-74
2024/04/19 01:26:59;;;;;;;3.63;1.60;;;;;;;9.70;37.17;101036.81;5316561;26;20008;-75
2024/04/19 01:29:28;;;;;;;3.13;1.70;;;;;;;9.66;36.54;101029.88;5310107;26;20006;-74
2024/04/19 01:31:55;;;;;;;3.13;1.90;;;;;;;9.64;36.67;101027.28;5303712;26;20429;-74
2024/04/19 01:34:25;;;;;;;3.47;2.03;;;;;;;9.64;36.96;101026.41;5311443;26;20024;-75
2024/04/19 01:36:52;;;;;;;3.00;1.65;;;;;;;9.62;37.02;101018.31;5311830;26;20364;-72
2024/04/19 01:39:22;;;;;;;3.45;1.85;;;;;;;9.60;37.01;101016.69;5318399;26;20080;-72
2024/04/19 01:41:49;;;;;;;2.83;1.70;;;;;;;9.59;37.45;101023.16;5275185;26;20479;-72
2024/04/19 01:44:21;;;;;;;3.42;2.10;;;;;;;9.62;37.65;101014.72;5310350;26;20005;-73
2024/04/19 01:46:48;;;;;;;5.38;2.35;;;;;;;9.54;37.33;101012.59;5306331;26;20009;-73
2024/04/19 01:49:18;;;;;;;3.42;2.10;;;;;;;9.52;37.58;101014.59;5312504;26;20010;-72
2024/04/19 01:51:45;;;;;;;4.18;2.20;;;;;;;9.51;37.68;101012.84;5279962;27;20496;-74
2024/04/19 01:54:15;;;;;;;4.38;2.28;;;;;;;9.46;37.64;101007.75;5309220;26;20379;-74
2024/04/19 01:56:42;;;;;;;3.65;2.22;;;;;;;9.45;38.06;100999.69;5310930;26;20017;-74
2024/04/19 01:59:12;;;;;;;5.30;2.40;;;;;;;9.42;38.25;100999.94;5315814;26;20801;-74
2024/04/19 02:01:42;;;;;;;4.35;2.35;;;;;;;9.41;39.11;100984.56;5306631;26;20017;-74
2024/04/19 02:04:12;;;;;;;3.60;2.22;;;;;;;9.37;38.29;100975.69;5315233;26;20009;-74
2024/04/19 02:06:39;;;;;;;4.00;2.28;;;;;;;9.34;38.50;100973.19;5307885;26;20345;-74
2024/04/19 02:09:30;;;;;;;3.42;2.10;;;;;;;9.34;38.63;100980.53;5305146;26;20013;-75
2024/04/19 02:11:57;;;;;;;4.05;2.20;;;;;;;9.32;38.68;100979.81;5304980;26;20244;-75
2024/04/19 02:14:26;;;;;;;3.78;2.20;;;;;;;9.30;39.13;100977.19;5306356;26;20005;-75
2024/04/19 02:16:57;;;;;;;4.20;2.20;;;;;;;9.32;39.48;100956.09;5310318;26;20014;-75
2024/04/19 02:19:29;;;;;;;4.18;2.30;;;;;;;9.30;39.15;100960.78;5281129;26;20472;-75
2024/04/19 02:21:56;;;;;;;4.03;2.28;;;;;;;9.26;39.16;100939.31;5303644;26;20014;-75
2024/04/19 02:24:25;;;;;;;4.53;2.40;;;;;;;9.25;38.98;100930.25;5308959;26;20013;-75
2024/04/19 02:26:53;;;;;;;6.13;3.45;;;;;;;9.23;39.44;100921.31;5311459;26;20087;-75
2024/04/19 02:32:10;;;;;;;4.03;2.10;;;;;;;9.23;40.29;100918.59;5307051;26;20019;-75
2024/04/19 02:34:40;;;;;;;4.22;2.40;;;;;;;9.19;39.36;100916.22;5317397;26;20010;-74
2024/04/19 02:37:14;;;;;;;3.70;2.17;;;;;;;9.19;39.61;100902.56;5321859;26;20054;-75
2024/04/19 02:39:44;;;;;;;4.30;2.30;;;;;;;9.18;39.63;100896.22;5282431;27;20009;-75
2024/04/19 02:42:13;;;;;;;4.13;2.13;;;;;;;9.18;39.96;100889.91;5317736;26;20006;-75
2024/04/19 02:44:52;;;;;;;3.75;2.30;;;;;;;9.17;40.38;100886.31;5317269;26;20010;-75
2024/04/19 02:47:24;;;;;;;4.13;2.50;;;;;;;9.20;40.25;100879.72;5285760;27;20362;-75
2024/04/19 02:49:54;;;;;;;3.67;2.60;;;;;;;9.16;39.88;100875.53;5321892;26;20038;-75
2024/04/19 02:52:24;;;;;;;4.43;2.80;;;;;;;9.16;39.89;100856.41;5316894;26;20540;-75
2024/04/19 02:54:53;;;;;;;4.10;2.45;;;;;;;9.16;40.05;100854.56;5317357;26;20388;-75
2024/04/19 02:57:23;;;;;;;4.20;2.60;;;;;;;9.15;40.02;100850.09;5314587;26;20470;-75
2024/04/19 02:59:53;;;;;;;4.57;2.72;;;;;;;9.15;40.08;100850.09;5314960;26;20021;-75
2024/04/19 03:02:25;;;;;;;4.20;2.50;;;;;;;9.15;40.72;100854.69;5317319;26;20321;-75
2024/04/19 03:04:55;;;;;;;4.20;2.47;;;;;;;9.13;40.00;100843.00;5318576;26;20040;-75
2024/04/19 03:07:25;;;;;;;5.18;2.80;;;;;;;9.12;40.34;100833.94;5284358;27;20013;-75
2024/04/19 03:09:54;;;;;;;4.63;2.50;;;;;;;9.13;40.54;100832.09;5325260;26;20020;-75
2024/04/19 03:12:24;;;;;;;4.63;2.88;;;;;;;9.12;40.25;100822.16;5324136;26;20016;-74
2024/04/19 03:14:54;;;;;;;3.85;2.65;;;;;;;9.10;40.49;100825.88;5317560;26;20021;-75
2024/04/19 03:17:26;;;;;;;4.88;2.90;;;;;;;9.11;40.89;100829.47;5316414;26;20084;-74
2024/04/19 03:19:56;;;;;;;4.93;2.50;;;;;;;9.06;40.59;100815.34;5324377;26;20008;-75
2024/04/19 03:22:26;;;;;;;4.35;2.45;;;;;;;9.07;40.69;100809.75;5329112;26;20518;-75
2024/04/19 03:24:56;;;;;;;5.40;2.70;;;;;;;9.05;40.53;100809.00;5291788;26;20115;-75
2024/04/19 03:27:25;;;;;;;3.45;2.17;;;;;;;9.05;40.72;100809.00;5310636;26;20005;-75
2024/04/19 03:29:57;;;;;;;3.70;2.28;;;;;;;9.05;40.93;100803.56;5308999;26;20332;-75
2024/04/19 03:32:30;;;;;;;3.65;2.30;;;;;;;9.02;41.12;100798.34;5316500;26;20009;-75
2024/04/19 03:35:00;;;;;;;5.28;2.30;;;;;;;8.99;41.00;100782.22;5311221;26;20016;-74
2024/04/19 03:37:30;;;;;;;4.32;2.53;;;;;;;8.99;40.42;100786.81;5319376;26;20005;-74
2024/04/19 03:39:59;;;;;;;2.72;1.98;;;;;;;8.97;41.04;100776.03;5320694;26;20006;-75
2024/04/19 03:42:29;;;;;;;4.13;2.50;;;;;;;8.95;40.64;100780.72;5320544;26;20453;-75
2024/04/19 03:47:47;;;;;;;3.45;2.03;;;;;;;8.92;41.07;100777.38;5309310;26;20009;-75
2024/04/19 03:50:17;;;;;;;3.17;2.00;;;;;;;8.86;40.77;100773.28;5306518;27;20330;-75
2024/04/19 03:52:47;;;;;;;3.10;1.80;;;;;;;8.86;41.04;100775.16;5316085;26;20050;-73
2024/04/19 03:55:17;;;;;;;3.92;2.53;;;;;;;8.85;41.15;100768.81;5313175;26;20006;-73
2024/04/19 03:57:46;;;;;;;4.07;2.00;;;;;;;8.81;41.18;100764.63;5321139;26;20010;-73
2024/04/19 04:00:17;;;;;;;4.60;2.40;;;;;;;8.80;41.24;100757.44;5307830;26;20480;-73
2024/04/19 04:02:52;;;;;;;4.45;1.90;;;;;;;8.81;41.63;100750.97;5308763;26;20013;-73
2024/04/19 04:05:23;;;;;;;3.05;1.90;;;;;;;8.77;41.02;100746.75;5321098;26;20357;-72
2024/04/19 04:07:53;;;;;;;4.97;2.20;;;;;;;8.75;41.61;100743.31;5314895;26;20006;-73
2024/04/19 04:10:23;;;;;;;3.33;1.85;;;;;;;8.74;41.60;100747.03;5313785;26;20005;-72
2024/04/19 04:12:53;;;;;;;3.40;2.00;;;;;;;8.73;41.56;100738.97;5286643;26;20014;-72
2024/04/19 04:15:26;;;;;;;4.40;2.03;;;;;;;8.72;41.57;100735.34;5309394;26;20001;-73
2024/04/19 04:18:00;;;;;;;3.47;1.92;;;;;;;8.74;42.38;100727.06;5309532;26;20013;-73
2024/04/19 04:20:30;;;;;;;3.38;2.00;;;;;;;8.71;41.89;100725.44;5274685;27;20018;-73
2024/04/19 04:23:01;;;;;;;3.80;1.92;;;;;;;8.71;42.08;100709.94;5306630;26;20010;-73
2024/04/19 04:25:31;;;;;;;3.72;2.00;;;;;;;8.70;41.66;100710.91;5308252;26;20002;-73
2024/04/19 04:28:00;;;;;;;3.45;2.17;;;;;;;8.71;42.10;100703.59;5308483;26;20083;-73
2024/04/19 04:30:30;;;;;;;3.38;1.95;;;;;;;8.70;42.12;100688.22;5286644;26;20001;-73
2024/04/19 04:33:02;;;;;;;3.40;1.83;;;;;;;8.72;42.12;100697.16;5313100;26;20456;-73
2024/04/19 04:35:32;;;;;;;2.63;1.52;;;;;;;8.68;41.96;100679.28;5313264;26;20009;-73
2024/04/19 04:38:02;;;;;;;2.97;1.70;;;;;;;8.69;42.16;100679.16;5306236;26;20006;-73
2024/04/19 04:40:32;;;;;;;3.83;1.70;;;;;;;8.69;42.28;100676.44;5312535;26;20828;-73
2024/04/19 04:43:01;;;;;;;2.88;1.45;;;;;;;8.69;42.20;100670.13;5309767;26;20341;-72
2024/04/19 04:45:32;;;;;;;3.28;1.50;;;;;;;8.68;42.16;100666.53;5307299;26;20380;-72
2024/04/19 04:48:05;;;;;;;4.35;1.70;;;;;;;8.69;42.36;100660.06;5303936;26;20010;-73
2024/04/19 04:50:34;;;;;;;2.83;1.20;;;;;;;8.66;42.19;100667.66;5300286;26;20010;-72
2024/04/19 04:53:04;;;;;;;3.05;1.40;;;;;;;8.65;41.99;100664.06;5284994;27;20083;-73
2024/04/19 04:55:34;;;;;;;3.05;1.42;;;;;;;8.63;42.11;100649.69;5299939;27;20005;-73
2024/04/19 04:58:05;;;;;;;2.92;1.50;;;;;;;8.62;42.24;100650.66;5277764;27;20080;-73
2024/04/19 05:00:35;;;;;;;2.60;1.45;;;;;;;8.59;41.95;100644.59;5307853;26;20001;-73
2024/04/19 05:03:07;;;;;;;2.08;1.30;;;;;;;8.61;42.77;100645.34;5302212;26;20502;-73
2024/04/19 05:05:37;;;;;;;1.90;1.08;;;;;;;8.55;42.29;100637.66;5307494;26;20037;-73
2024/04/19 05:08:08;;;;;;;2.42;1.20;;;;;;;8.56;42.57;100629.38;5300379;26;20021;-72
2024/04/19 05:10:37;;;;;;;2.58;1.58;;;;;;;8.55;42.50;100629.47;5305716;26;20002;-72
2024/04/19 05:13:07;;;;;;;2.35;1.25;;;;;;;8.55;42.25;100621.31;5304722;26;20053;-72
2024/04/19 05:15:37;;;;;;;2.95;1.10;;;;;;;8.53;42.12;100618.69;5309003;26;20006;-73
2024/04/19 05:18:09;;;;;;;2.92;1.30;;;;;;;8.55;42.74;100604.94;5306698;26;20010;-72
2024/04/19 05:20:39;;;;;;;2.80;1.30;;;;;;;8.51;42.34;100606.16;5299426;26;20021;-73
2024/04/19 05:23:09;;;;;;;2.80;1.20;;;;;;;8.50;42.19;100604.47;5312955;26;20002;-73
2024/04/19 05:25:39;;;;;;;3.50;1.25;;;;;;;8.50;42.61;100593.56;5306537;26;19998;-73
2024/04/19 05:28:09;;;;;;;2.15;1.10;;;;;;;8.49;42.21;100591.81;5277390;27;20001;-74
2024/04/19 05:30:38;;;;;;;2.45;1.17;;;;;;;8.47;42.43;100583.75;5310782;26;20315;-71
2024/04/19 05:33:11;;;;;;;2.15;1.20;;;;;;;8.49;42.70;100591.81;5303603;27;20010;-72
2024/04/19 05:35:40;;;;;;;2.08;1.08;;;;;;;8.44;42.30;100585.84;5281342;26;20005;-73
2024/04/19 05:38:10;;;;;;;1.92;0.98;;;;;;;8.45;42.76;100582.13;5319409;26;20045;-73
2024/04/19 05:40:40;;;;;;;4.15;1.10;;;;;;;8.44;42.80;100585.84;5305382;26;20009;-73
2024/04/19 05:43:10;;;;;;;2.15;1.20;;;;;;;8.42;42.89;100588.75;5282345;27;20080;-73
2024/04/19 05:45:40;;;;;;;1.58;1.10;;;;;;;8.42;42.46;100571.50;5267622;27;20019;-73
2024/04/19 05:48:13;;;;;;;2.03;1.20;;;;;;;8.43;43.00;100573.22;5277971;27;20109;-73
2024/04/19 05:50:47;;;;;;;2.03;1.15;;;;;;;8.38;43.02;100568.16;5272308;26;20009;-74
2024/04/19 05:53:17;;;;;;;1.80;1.10;;;;;;;8.38;43.29;100568.16;5309298;26;20009;-74
2024/04/19 05:55:47;;;;;;;2.45;1.40;;;;;;;8.38;42.95;100561.84;5306315;26;20479;-75
2024/04/19 05:58:17;;;;;;;1.92;1.10;;;;;;;8.37;43.28;100550.06;5305208;26;20005;-74
2024/04/19 06:00:46;;;;;;;2.92;1.27;;;;;;;8.38;43.42;100548.19;5269512;27;20002;-74
2024/04/19 06:03:19;;;;;;;2.20;1.08;;;;;;;8.39;43.52;100549.94;5316177;26;20038;-74
2024/04/19 06:05:49;;;;;;;2.47;1.27;;;;;;;8.33;43.34;100549.47;5310713;26;20380;-73
2024/04/19 06:08:19;;;;;;;1.83;1.00;;;;;;;8.37;43.61;100543.72;5307975;27;20668;-74
2024/04/19 06:10:48;;;;;;;1.83;1.10;;;;;;;8.35;43.36;100541.13;5313665;26;20469;-73
2024/04/19 06:13:18;;;;;;;1.80;1.10;;;;;;;8.37;43.50;100538.28;5307245;26;20010;-73
2024/04/19 06:15:50;;;;;;;1.90;1.10;;;;;;;8.35;43.39;100530.22;5304697;27;20013;-73
2024/04/19 06:18:22;;;;;;;1.52;1.10;;;;;;;8.38;43.56;100529.97;5315381;26;20005;-74
2024/04/19 06:20:52;;;;;;;2.13;1.20;;;;;;;8.34;43.52;100520.34;5306483;26;20469;-74
2024/04/19 06:23:22;;;;;;;2.20;1.20;;;;;;;8.35;43.89;100511.13;5307045;27;20079;-73
2024/04/19 06:25:55;;;;;;;2.25;1.10;;;;;;;8.34;43.99;100507.53;5310150;26;20006;-74
2024/04/19 06:28:25;;;;;;;2.55;1.20;;;;;;;8.37;43.74;100500.09;5311325;26;20006;-73
2024/04/19 06:30:55;;;;;;;2.00;1.23;;;;;;;8.37;44.29;100500.09;5275843;26;20013;-73
2024/04/19 06:33:28;;;;;;;1.80;1.08;;;;;;;8.38;44.78;100494.53;5307122;27;20010;-72
2024/04/19 06:36:00;;;;;;;1.88;1.10;;;;;;;8.36;44.79;100499.25;5284307;26;20020;-75
2024/04/19 06:38:29;;;;;;;1.90;1.10;;;;;;;8.35;43.96;100492.06;5281649;27;20001;-74
2024/04/19 06:40:59;;;;;;;2.08;1.30;;;;;;;8.36;43.93;100490.19;5309303;26;20009;-74
2024/04/19 06:43:29;;;;;;;2.42;1.60;;;;;;;8.37;44.52;100491.94;5312940;26;20009;-75
2024/04/19 06:45:59;;;;;;;2.78;1.30;;;;;;;8.38;44.54;100486.34;5309316;26;20024;-75
2024/04/19 06:48:31;;;;;;;1.95;1.15;;;;;;;8.39;44.88;100485.34;5313381;26;20141;-74
2024/04/19 06:51:01;;;;;;;2.33;1.45;;;;;;;8.36;44.78;100477.41;5281996;26;20013;-74
2024/04/19 06:53:31;;;;;;;1.95;1.08;;;;;;;8.38;44.76;100469.13;5318534;26;20024;-75
2024/04/19 06:56:00;;;;;;;2.22;1.30;;;;;;;8.39;44.92;100465.41;5309148;26;20002;-74
2024/04/19 06:58:30;;;;;;;1.80;1.10;;;;;;;8.38;44.53;100461.81;5271701;26;20594;-74
2024/04/19 07:01:00;;;;;;;2.28;1.38;;;;;;;8.39;45.08;100460.81;5310049;26;20039;-74
2024/04/19 07:03:48;;;;;;;3.25;1.23;;;;;;;8.39;45.29;100455.38;5312299;26;20056;-74
2024/04/19 07:06:18;;;;;;;1.35;1.05;;;;;;;8.38;45.25;100447.31;5286575;26;20006;-74
2024/04/19 07:09:03;;;;;;;2.70;1.52;;;;;;;8.40;45.34;100448.06;5308997;26;20079;-74
2024/04/19 07:11:33;;;;;;;3.03;1.42;;;;;;;8.42;45.14;100446.06;5311187;26;20005;-73
2024/04/19 07:14:03;;;;;;;2.80;1.50;;;;;;;8.42;45.44;100443.34;5309939;26;20021;-74
2024/04/19 07:16:32;;;;;;;2.17;1.42;;;;;;;8.43;45.56;100436.84;5309412;26;20064;-74
2024/04/19 07:19:07;;;;;;;2.70;1.52;;;;;;;8.46;45.96;100432.03;5309493;26;20509;-74
2024/04/19 07:21:36;;;;;;;2.40;1.60;;;;;;;8.44;45.77;100433.13;5309932;26;20088;-74
2024/04/19 07:24:07;;;;;;;2.10;1.30;;;;;;;8.45;45.78;100429.41;5279461;27;20020;-74
2024/04/19 07:26:38;;;;;;;2.45;1.45;;;;;;;8.48;45.56;100434.63;5305341;26;20017;-74
2024/04/19 07:29:07;;;;;;;2.33;1.50;;;;;;;8.48;46.05;100427.31;5305119;26;20021;-74
2024/04/19 07:31:37;;;;;;;2.42;1.50;;;;;;;8.49;45.71;100417.28;5305098;26;20025;-74
2024/04/19 07:34:09;;;;;;;3.53;1.60;;;;;;;8.51;46.34;100421.56;5283028;27;20032;-74
2024/04/19 07:36:39;;;;;;;3.55;1.65;;;;;;;8.50;45.90;100419.00;5303034;26;20715;-74
2024/04/19 07:39:09;;;;;;;2.97;1.88;;;;;;;8.53;46.18;100422.31;5277456;26;20002;-74
2024/04/19 07:41:38;;;;;;;2.75;1.60;;;;;;;8.54;46.40;100426.78;5307520;26;20323;-74
2024/04/19 07:44:08;;;;;;;3.30;1.45;;;;;;;8.56;46.29;100423.91;5308717;26;20021;-74
2024/04/19 07:46:38;;;;;;;2.20;1.52;;;;;;;8.58;46.43;100425.53;5305931;26;20002;-74
2024/04/19 07:49:10;;;;;;;2.60;1.77;;;;;;;8.62;47.03;100420.66;5308921;26;20105;-74
2024/04/19 07:51:40;;;;;;;2.17;1.60;;;;;;;8.59;46.60;100401.81;5314852;26;20481;-74
2024/04/19 07:54:10;;;;;;;2.45;1.65;;;;;;;8.63;46.28;100404.16;5301431;26;20009;-75
2024/04/19 07:56:41;;;;;;;2.22;1.45;;;;;;;8.65;46.67;100404.03;5307580;26;20449;-74
2024/04/19 07:59:11;;;;;;;2.33;1.50;;;;;;;8.66;46.79;100395.72;5320122;26;20487;-74
2024/04/19 08:01:41;;;;;;;2.45;1.45;;;;;;;8.68;46.41;100398.28;5279521;26;20060;-75
2024/04/19 08:04:13;;;;;;;2.72;1.70;;;;;;;8.72;47.20;100399.78;5282675;26;20044;-75
2024/04/19 08:06:43;;;;;;;3.05;1.50;;;;;;;8.70;47.01;100401.75;5313680;26;20009;-75
2024/04/19 08:09:13;;;;;;;3.00;1.60;;;;;;;8.75;47.04;100396.78;5317971;26;20092;-75
2024/04/19 08:11:43;;;;;;;2.78;1.50;;;;;;;8.77;47.01;100382.97;5283720;27;20009;-75
2024/04/19 08:14:13;;;;;;;1.85;1.40;;;;;;;8.80;47.53;100380.00;5305908;26;20014;-76
2024/04/19 08:16:42;;;;;;;2.70;1.77;;;;;;;8.82;47.22;100386.19;5303767;26;20005;-75
2024/04/19 08:19:15;;;;;;;3.10;1.73;;;;;;;8.86;47.76;100385.78;5310743;26;20464;-75
2024/04/19 08:21:44;;;;;;;2.80;1.77;;;;;;;8.84;47.74;100381.44;5308045;26;20504;-75
2024/04/19 08:24:14;;;;;;;2.60;1.60;;;;;;;8.87;47.57;100376.59;5306049;27;20029;-75
2024/04/19 08:26:44;;;;;;;2.83;2.00;;;;;;;8.90;47.62;100380.94;5283098;26;20008;-75
2024/04/19 08:29:14;;;;;;;3.22;2.00;;;;;;;8.92;47.79;100376.16;5303891;26;20005;-75
2024/04/19 08:31:58;;;;;;;2.92;1.85;;;;;;;8.91;47.58;100364.41;5320805;21;20023;-83
2024/04/19 08:34:36;;;;;;;2.80;2.00;;;;;;;8.98;48.71;100371.06;5350723;26;20012;-83
2024/04/19 08:37:25;;;;;;;3.15;1.77;;;;;;;8.96;47.73;100362.13;5312128;27;20010;-85
2024/04/19 08:39:56;;;;;;;3.63;2.17;;;;;;;8.97;47.79;100366.59;5350227;26;20041;-86
2024/04/19 08:42:32;;;;;;;3.25;2.03;;;;;;;8.98;47.76;100345.63;5357268;26;20412;-84
2024/04/19 08:45:05;;;;;;;2.85;2.05;;;;;;;9.01;48.05;100362.59;5359603;26;20012;-84
2024/04/19 08:47:37;;;;;;;3.63;2.08;;;;;;;9.07;47.73;100363.91;5341223;26;20423;-84
2024/04/19 08:50:10;;;;;;;3.25;2.30;;;;;;;9.08;48.37;100355.56;5353173;26;20016;-84
2024/04/19 08:52:47;;;;;;;4.20;1.98;;;;;;;9.08;47.76;100354.72;5348710;26;20016;-85
2024/04/19 08:55:42;;;;;;;3.60;2.35;;;;;;;9.13;48.47;100348.84;5345148;26;20032;-84
2024/04/19 08:58:22;;;;;;;3.95;2.40;;;;;;;9.14;49.04;100359.63;5363149;26;20017;-83
2024/04/19 09:00:52;;;;;;;4.18;2.70;;;;;;;9.15;48.29;100358.63;5359618;26;20014;-83
2024/04/19 09:03:22;;;;;;;5.15;2.28;;;;;;;9.17;48.25;100359.34;5350259;26;20009;-83
2024/04/19 09:05:55;;;;;;;5.30;2.55;;;;;;;9.23;48.61;100353.34;5347417;26;20024;-83
2024/04/19 09:08:25;;;;;;;3.97;2.85;;;;;;;9.20;48.16;100347.28;5369893;26;20005;-84
2024/04/19 09:10:55;;;;;;;3.30;2.33;;;;;;;9.24;48.74;100348.75;5347931;26;21620;-83
2024/04/19 09:13:33;;;;;;;;;;;;;;;9.02;49.47;100350.66;5350798;26;20075;-84
2024/04/19 09:16:09;;;;;;;3.60;2.40;;;;;;;9.26;48.99;100346.72;5377434;26;19926;-83
2024/04/19 09:18:39;;;;;;;4.68;2.45;;;;;;;9.30;48.21;100349.06;5353291;26;20139;-84
2024/04/19 09:21:24;;;;;;;4.10;2.53;;;;;;;9.36;49.44;100345.78;5338912;26;20032;-84
2024/04/19 09:23:57;;;;;;;3.85;2.67;;;;;;;9.33;48.28;100340.56;5385416;26;20012;-84
2024/04/19 09:26:29;;;;;;;4.13;2.90;;;;;;;9.38;48.70;100342.91;5339158;26;20053;-83
2024/04/19 09:29:00;;;;;;;4.15;2.90;;;;;;;9.40;48.71;100335.47;5336376;26;20009;-82
2024/04/19 09:31:30;;;;;;;4.00;2.60;;;;;;;9.43;49.00;100335.19;5352503;26;20678;-84
2024/04/19 09:34:02;;;;;;;3.88;2.50;;;;;;;9.44;48.76;100329.59;5344802;26;20009;-83
2024/04/19 09:36:37;;;;;;;3.75;2.42;;;;;;;9.44;49.45;100326.84;5380529;26;20019;-83
2024/04/19 09:39:08;;;;;;;3.25;2.22;;;;;;;9.49;48.79;100326.44;5350610;26;20023;-83
2024/04/19 09:41:43;;;;;;;4.43;2.75;;;;;;;9.51;49.20;100327.16;5345609;26;20017;-83
2024/04/19 09:44:17;;;;;;;4.03;2.13;;;;;;;9.51;49.16;100318.09;5355997;26;20041;-83
2024/04/19 09:46:52;;;;;;;3.38;1.98;;;;;;;9.53;49.70;100314.22;5349522;26;20541;-83
2024/04/19 09:49:28;;;;;;;2.35;1.60;;;;;;;9.53;49.30;100306.03;5349502;26;20082;-83
2024/04/19 09:52:18;;;;;;;2.55;1.30;;;;;;;9.54;49.39;100304.16;5349490;26;20012;-84
2024/04/19 09:54:53;;;;;;;2.72;1.30;;;;;;;9.55;48.83;100314.09;5344555;26;20001;-84
2024/04/19 09:57:27;;;;;;;1.20;0.90;;;;;;;9.56;49.27;100299.41;5356129;26;20010;-84
2024/04/19 09:59:58;;;;;;;2.00;1.38;;;;;;;9.58;48.93;100303.72;5353463;26;20001;-83
2024/04/19 10:02:45;;;;;;;2.30;1.55;;;;;;;9.58;49.78;100295.53;5355578;26;20004;-83
2024/04/19 10:05:16;;;;;;;2.42;1.40;;;;;;;9.62;49.30;100293.38;5351681;26;20013;-85
2024/04/19 10:07:51;;;;;;;3.42;2.03;;;;;;;9.67;49.64;100304.72;5361417;26;20008;-84
2024/04/19 10:10:21;;;;;;;3.15;2.00;;;;;;;9.66;49.27;100294.84;5342693;26;20052;-82
2024/04/19 10:12:51;;;;;;;4.13;2.38;;;;;;;9.71;48.92;100290.66;5353720;26;20345;-82
2024/04/19 10:15:23;;;;;;;3.42;2.20;;;;;;;9.73;48.83;100285.06;5343197;26;20012;-82
2024/04/19 10:17:53;;;;;;;4.03;2.17;;;;;;;9.72;48.85;100267.81;5360723;26;20058;-82
2024/04/19 10:20:25;;;;;;;3.65;2.20;;;;;;;9.74;49.31;100279.44;5351224;26;20023;-84
2024/04/19 10:22:57;;;;;;;4.13;2.60;;;;;;;9.74;49.61;100271.22;5363631;26;20011;-82
2024/04/19 10:25:29;;;;;;;4.75;2.50;;;;;;;9.73;49.34;100268.66;5351648;26;20530;-82
2024/04/19 10:27:59;;;;;;;3.85;2.70;;;;;;;9.74;49.45;100256.75;5352111;26;20005;-85
2024/04/19 10:30:34;;;;;;;4.22;2.63;;;;;;;9.80;49.62;100267.09;5355132;26;20021;-84
2024/04/19 10:33:06;;;;;;;4.05;2.65;;;;;;;9.81;49.31;100261.47;5361409;26;20011;-84
2024/04/19 10:35:38;;;;;;;3.90;2.40;;;;;;;9.82;49.19;100262.34;5346961;26;20004;-84
2024/04/19 10:38:10;;;;;;;4.03;2.38;;;;;;;9.83;49.77;100259.44;5367998;26;20016;-84
2024/04/19 10:40:40;;;;;;;3.45;2.00;;;;;;;9.81;49.52;100256.00;5360047;26;20825;-85
2024/04/19 10:43:10;;;;;;;2.80;2.00;;;;;;;9.84;49.03;100254.84;5376068;26;20081;-85
2024/04/19 10:45:41;;;;;;;4.75;2.15;;;;;;;9.86;49.38;100261.03;5312766;26;20056;-85
2024/04/19 10:48:11;;;;;;;4.15;1.80;;;;;;;9.89;49.44;100249.81;5358087;26;20023;-85
2024/04/19 10:50:45;;;;;;;3.63;1.80;;;;;;;9.91;49.61;100253.25;5365706;26;20012;-85
2024/04/19 10:53:20;;;;;;;2.80;1.70;;;;;;;9.93;50.20;100255.84;5358008;26;20009;-85
2024/04/19 10:55:50;;;;;;;3.42;1.58;;;;;;;9.95;49.71;100260.16;5350571;26;20009;-85
2024/04/19 10:58:20;;;;;;;2.92;1.60;;;;;;;9.95;49.31;100253.84;5358326;26;20020;-85
2024/04/19 11:00:50;;;;;;;2.85;1.65;;;;;;;9.96;49.73;100255.56;5363264;26;20024;-85
2024/04/19 11:03:20;;;;;;;5.07;1.80;;;;;;;9.96;49.32;100252.84;5362481;26;20009;-85
2024/04/19 11:05:50;;;;;;;2.40;1.27;;;;;;;9.97;49.35;100255.44;5355700;26;20005;-86
2024/04/19 11:08:24;;;;;;;3.42;1.30;;;;;;;10.00;49.71;100276.13;5350577;26;20369;-85
2024/04/19 11:10:55;;;;;;;3.83;1.23;;;;;;;10.00;49.15;100244.19;5361280;26;20005;-86
2024/04/19 11:13:25;;;;;;;2.42;1.00;;;;;;;10.01;49.01;100264.19;5351110;26;20008;-86
2024/04/19 11:15:55;;;;;;;1.58;0.80;;;;;;;9.99;48.93;100264.31;5356887;26;20365;-86
2024/04/19 11:18:28;;;;;;;1.43;0.80;;;;;;;9.96;48.74;100270.09;5356135;26;20016;-85
2024/04/19 11:20:59;;;;;;;2.15;0.93;;;;;;;9.94;48.84;100250.25;5351520;26;20272;-84
2024/04/19 11:23:42;;;;;;;1.05;0.60;;;;;;;9.97;49.01;100262.75;5345535;26;20018;-86
2024/04/19 11:26:12;;;;;;;1.20;0.60;;;;;;;9.91;48.70;100261.44;5357059;26;20009;-83
2024/04/19 11:28:45;;;;;;;0.98;0.60;;;;;;;9.96;48.76;100259.16;5348594;26;20001;-86
2024/04/19 11:31:15;;;;;;;3.53;1.60;;;;;;;9.91;48.76;100246.91;5352442;26;20435;-85
2024/04/19 11:33:45;;;;;;;1.45;0.85;;;;;;;9.91;48.53;100250.50;5352050;26;20017;-85
2024/04/19 11:36:15;;;;;;;1.92;1.17;;;;;;;9.91;48.53;100242.31;5342994;26;20017;-85
2024/04/19 11:38:48;;;;;;;1.90;0.90;;;;;;;9.94;48.96;100241.19;5369079;26;20023;-85
2024/04/19 11:41:19;;;;;;;1.83;0.80;;;;;;;9.91;48.76;100238.72;5350761;26;20082;-86
2024/04/19 11:43:49;;;;;;;1.92;1.00;;;;;;;9.92;49.37;100232.25;5359773;26;20000;-84
2024/04/19 11:46:23;;;;;;;3.17;0.90;;;;;;;9.93;49.20;100237.56;5358920;26;20008;-86
2024/04/19 11:48:53;;;;;;;2.15;0.82;;;;;;;9.94;49.36;100231.09;5346144;26;20068;-86
2024/04/19 11:51:23;;;;;;;2.35;1.08;;;;;;;9.98;49.30;100234.41;5352663;26;20079;-86
2024/04/19 11:53:56;;;;;;;1.48;0.88;;;;;;;10.03;50.02;100237.56;5351655;26;20005;-87
2024/04/19 11:56:26;;;;;;;2.15;1.20;;;;;;;10.02;49.75;100239.44;5350228;26;20008;-87
2024/04/19 11:58:57;;;;;;;1.92;1.00;;;;;;;10.05;49.59;100227.34;5357133;26;20012;-87